Terminal Aerodrome Forecast
Issued by NWS Jackson, KY

Home | Current Version | Previous Version | Text Only | Print | Product List | Glossary On
Versions: 1 2 3 4 5 6 7 8 9 10 11 12 13 14 15 16 17 18 19 20 21 22 23 24 25
000
FTUS43 KJKL 032159 AAA
TAFLOZ
TAF AMD
KLOZ 032159Z 0322/0418 VRB05KT P6SM VCTS SCT030CB BKN050
      TEMPO 0322/0324 VRB25KT 1SM TSRA BR BKN015CB OVC030
     FM040400 VRB03KT 5SM BR BKN012
     FM040800 00000KT 1/2SM FG BKN004
     FM041500 VRB03KT P6SM BKN008=

USA.gov is the U.S. government's official web portal to all federal, state and local government web resources and services.